createdAt,value
2022-10-17T00:01:03.532Z,16.30
2022-10-17T00:03:30.892Z,16.50
2022-10-17T00:05:58.497Z,16.50
2022-10-17T00:08:26.948Z,16.60
2022-10-17T00:11:04.470Z,16.70
2022-10-17T00:13:38.111Z,16.70
2022-10-17T00:16:05.912Z,16.70
2022-10-17T00:18:32.726Z,16.80
2022-10-17T00:20:59.647Z,16.90
2022-10-17T00:23:28.527Z,16.80
2022-10-17T00:26:00.713Z,16.90
2022-10-17T00:28:27.703Z,17.00
2022-10-17T00:31:03.981Z,16.90
2022-10-17T00:33:32.052Z,16.90
2022-10-17T00:36:15.514Z,16.90
2022-10-17T00:38:45.047Z,16.80
2022-10-17T00:41:15.725Z,16.90
2022-10-17T00:44:24.296Z,17.00
2022-10-17T00:46:51.195Z,17.00
2022-10-17T00:49:18.830Z,17.10
2022-10-17T00:51:51.556Z,17.10
2022-10-17T00:54:23.587Z,17.30
2022-10-17T00:56:51.192Z,17.20
2022-10-17T00:59:21.062Z,17.20
2022-10-17T01:02:03.326Z,17.20
2022-10-17T01:04:30.544Z,17.30
2022-10-17T01:06:57.459Z,17.40
2022-10-17T01:09:25.504Z,17.40
2022-10-17T01:12:30.629Z,17.40
2022-10-17T01:15:38.505Z,17.30
2022-10-17T01:18:29.361Z,17.30
2022-10-17T01:21:28.404Z,17.30
2022-10-17T01:24:25.996Z,17.20
2022-10-17T01:27:30.319Z,17.30
2022-10-17T01:30:27.173Z,17.30
2022-10-17T01:32:58.706Z,17.30
2022-10-17T01:35:44.999Z,17.30
2022-10-17T01:38:17.707Z,17.30
2022-10-17T01:40:59.814Z,17.20
2022-10-17T01:43:49.117Z,17.20
2022-10-17T01:46:26.270Z,17.30
2022-10-17T01:48:54.347Z,17.30
2022-10-17T01:51:28.986Z,17.30
2022-10-17T01:54:15.034Z,17.30
2022-10-17T01:56:43.483Z,17.20
2022-10-17T01:59:21.492Z,17.30
2022-10-17T02:01:52.901Z,17.20
2022-10-17T02:04:20.574Z,17.20
2022-10-17T02:06:47.438Z,17.20
2022-10-17T02:09:26.603Z,17.10
2022-10-17T02:12:29.686Z,17.00
2022-10-17T02:15:32.130Z,16.90
2022-10-17T02:18:30.278Z,16.90
2022-10-17T02:21:45.464Z,16.90
2022-10-17T02:24:30.008Z,16.90
2022-10-17T02:27:14.182Z,16.90
2022-10-17T02:29:50.573Z,16.90
2022-10-17T02:32:33.974Z,16.90
2022-10-17T02:35:04.295Z,16.90
2022-10-17T02:37:32.348Z,16.90
2022-10-17T02:40:01.158Z,16.90
2022-10-17T02:42:29.711Z,16.90
2022-10-17T02:45:01.202Z,16.90
2022-10-17T02:47:48.051Z,16.90
2022-10-17T02:50:15.309Z,16.90
2022-10-17T02:53:12.807Z,16.90
2022-10-17T02:55:47.956Z,16.80
2022-10-17T02:58:25.314Z,16.80
2022-10-17T03:00:52.983Z,16.90
2022-10-17T03:03:32.095Z,16.90
2022-10-17T03:05:59.000Z,16.90
2022-10-17T03:08:25.995Z,17.00
2022-10-17T03:10:52.938Z,16.90
2022-10-17T03:13:20.052Z,17.00
2022-10-17T03:15:47.434Z,16.90
2022-10-17T03:18:14.387Z,16.80
2022-10-17T03:20:41.560Z,16.80
2022-10-17T03:23:08.608Z,16.90
2022-10-17T03:25:35.522Z,16.90
2022-10-17T03:28:02.332Z,16.90
2022-10-17T03:30:29.717Z,16.80
2022-10-17T03:32:58.912Z,16.80
2022-10-17T03:35:26.804Z,16.80
2022-10-17T03:37:56.260Z,16.80
2022-10-17T03:40:23.081Z,16.70
2022-10-17T03:42:50.387Z,16.80
2022-10-17T03:45:17.205Z,16.90
2022-10-17T03:47:44.113Z,17.00
2022-10-17T03:50:10.888Z,17.00
2022-10-17T03:52:37.773Z,16.90
2022-10-17T03:55:05.167Z,16.90
2022-10-17T03:57:32.394Z,16.90
2022-10-17T03:59:59.295Z,16.80
2022-10-17T04:02:26.064Z,16.80
2022-10-17T04:04:52.940Z,16.70
2022-10-17T04:07:19.868Z,16.70
2022-10-17T04:09:46.666Z,16.70
2022-10-17T04:12:13.468Z,16.60
2022-10-17T04:14:40.279Z,16.60
2022-10-17T04:17:07.147Z,16.60
2022-10-17T04:19:33.990Z,16.70
2022-10-17T04:22:00.934Z,16.70
2022-10-17T04:24:27.894Z,16.70
2022-10-17T04:26:55.135Z,16.80
2022-10-17T04:29:21.933Z,16.80
2022-10-17T04:31:49.917Z,16.80
2022-10-17T04:34:16.843Z,16.80
2022-10-17T04:36:43.675Z,16.70
2022-10-17T04:39:10.746Z,16.50
2022-10-17T04:41:37.645Z,16.40
2022-10-17T04:44:04.640Z,16.30
2022-10-17T04:46:33.819Z,16.20
2022-10-17T04:49:00.590Z,16.20
2022-10-17T04:51:27.544Z,16.30
2022-10-17T04:53:55.022Z,16.40
2022-10-17T04:56:24.265Z,16.50
2022-10-17T04:58:52.065Z,16.80
2022-10-17T05:01:22.013Z,16.80
2022-10-17T05:03:49.243Z,16.80
2022-10-17T05:06:19.789Z,16.80
2022-10-17T05:08:47.518Z,16.80
2022-10-17T05:11:21.895Z,16.70
2022-10-17T05:13:57.379Z,16.70
2022-10-17T05:16:25.873Z,16.60
2022-10-17T05:18:55.563Z,16.70
2022-10-17T05:21:24.567Z,16.90
2022-10-17T05:23:52.574Z,16.90
2022-10-17T05:26:20.590Z,16.90
2022-10-17T05:28:47.542Z,16.80
2022-10-17T05:31:15.017Z,16.80
2022-10-17T05:33:42.202Z,16.80
2022-10-17T05:36:09.315Z,16.90
2022-10-17T05:38:36.592Z,16.90
2022-10-17T05:41:05.905Z,16.90
2022-10-17T05:43:34.348Z,17.10
2022-10-17T05:46:05.454Z,17.10
2022-10-17T05:48:32.505Z,17.10
2022-10-17T05:51:02.127Z,17.10
2022-10-17T05:53:34.271Z,17.10
2022-10-17T05:56:03.986Z,17.00
2022-10-17T05:58:49.307Z,17.00
2022-10-17T06:01:17.071Z,17.00
2022-10-17T06:03:43.812Z,17.00
2022-10-17T06:06:13.523Z,17.10
2022-10-17T06:08:40.616Z,17.10
2022-10-17T06:11:10.169Z,17.10
2022-10-17T06:13:38.701Z,17.10
2022-10-17T06:16:06.549Z,17.10
2022-10-17T06:18:33.657Z,17.00
2022-10-17T06:21:06.561Z,17.00
2022-10-17T06:23:33.779Z,17.00
2022-10-17T06:26:03.582Z,17.00
2022-10-17T06:28:31.194Z,17.00
2022-10-17T06:30:58.246Z,17.10
2022-10-17T06:33:25.356Z,17.10
2022-10-17T06:35:54.571Z,17.10
2022-10-17T06:38:22.382Z,17.10
2022-10-17T06:40:49.478Z,17.00
2022-10-17T06:43:16.407Z,17.10
2022-10-17T06:45:43.226Z,17.20
2022-10-17T06:48:10.047Z,17.20
2022-10-17T06:50:37.025Z,17.30
2022-10-17T06:53:03.935Z,17.30
2022-10-17T06:55:32.508Z,17.30
2022-10-17T06:57:59.321Z,17.30
2022-10-17T07:00:26.841Z,17.40
2022-10-17T07:02:53.892Z,17.40
2022-10-17T07:05:20.836Z,17.50
2022-10-17T07:07:51.736Z,17.50
2022-10-17T07:10:19.022Z,17.50
2022-10-17T07:12:46.083Z,17.70
2022-10-17T07:17:40.472Z,17.90
2022-10-17T07:20:08.231Z,18.00
2022-10-17T07:22:35.173Z,18.10
2022-10-17T07:25:02.066Z,18.00
2022-10-17T07:27:29.267Z,18.10
2022-10-17T07:29:56.443Z,18.10
2022-10-17T07:32:23.230Z,18.00
2022-10-17T07:34:50.034Z,18.10
2022-10-17T07:37:16.922Z,18.20
2022-10-17T07:39:43.826Z,18.50
2022-10-17T07:42:10.877Z,18.80
2022-10-17T07:44:37.757Z,19.10
2022-10-17T07:47:04.600Z,19.20
2022-10-17T07:49:31.444Z,19.40
2022-10-17T07:51:58.341Z,19.30
2022-10-17T07:54:25.363Z,19.30
2022-10-17T07:56:52.291Z,19.40
2022-10-17T07:59:19.161Z,19.50
2022-10-17T08:01:46.108Z,19.60
2022-10-17T08:04:13.138Z,19.70
2022-10-17T08:06:39.896Z,19.60
2022-10-17T08:09:06.816Z,19.70
2022-10-17T08:11:33.700Z,19.50
2022-10-17T08:14:00.582Z,19.50
2022-10-17T08:16:27.387Z,19.50
2022-10-17T08:18:54.200Z,19.70
2022-10-17T08:21:21.197Z,19.70
2022-10-17T08:23:48.051Z,19.80
2022-10-17T08:26:17.243Z,19.80
2022-10-17T08:28:44.441Z,19.80
2022-10-17T08:31:18.821Z,19.70
2022-10-17T08:33:47.612Z,19.80
2022-10-17T08:36:17.590Z,19.60
2022-10-17T08:38:47.973Z,19.60
2022-10-17T08:41:49.612Z,19.60
2022-10-17T08:44:48.174Z,19.60
2022-10-17T08:47:24.008Z,19.60
2022-10-17T08:49:59.181Z,19.70
2022-10-17T08:52:53.111Z,19.70
2022-10-17T08:55:45.326Z,19.50
2022-10-17T08:58:15.749Z,19.60
2022-10-17T09:01:13.220Z,19.70
2022-10-17T09:04:00.730Z,19.80
2022-10-17T09:06:44.209Z,19.90
2022-10-17T09:09:26.982Z,19.80
2022-10-17T09:12:17.845Z,20.00
2022-10-17T09:15:31.296Z,20.00
2022-10-17T09:18:40.487Z,20.00
2022-10-17T09:21:21.024Z,20.00
2022-10-17T09:24:03.966Z,20.10
2022-10-17T09:26:39.338Z,20.10
2022-10-17T09:29:36.907Z,20.00
2022-10-17T09:32:18.438Z,20.10
2022-10-17T09:34:45.377Z,20.10
2022-10-17T09:37:16.170Z,20.10
2022-10-17T09:39:44.270Z,20.10
2022-10-17T09:42:18.717Z,20.10
2022-10-17T09:45:15.362Z,20.20
2022-10-17T09:47:53.952Z,20.10
2022-10-17T09:50:32.928Z,20.10
2022-10-17T09:53:17.408Z,20.20
2022-10-17T09:55:56.121Z,20.10
2022-10-17T09:58:23.467Z,20.10
2022-10-17T10:00:50.582Z,20.10
2022-10-17T10:03:21.806Z,20.10
2022-10-17T10:06:12.943Z,20.10
2022-10-17T10:08:58.604Z,20.10
2022-10-17T10:11:55.464Z,20.10
2022-10-17T10:14:34.870Z,20.10
2022-10-17T10:17:05.294Z,20.10
2022-10-17T10:19:38.696Z,20.20
2022-10-17T10:22:26.750Z,20.40
2022-10-17T10:25:23.243Z,20.40
2022-10-17T10:27:50.245Z,20.50
2022-10-17T10:30:21.682Z,20.50
2022-10-17T10:32:49.778Z,20.40
2022-10-17T10:35:22.805Z,20.50
2022-10-17T10:37:56.542Z,20.40
2022-10-17T10:40:37.337Z,20.50
2022-10-17T10:43:06.191Z,20.50
2022-10-17T10:45:54.100Z,20.50
2022-10-17T10:48:29.317Z,20.50
2022-10-17T10:50:59.349Z,20.60
2022-10-17T10:53:35.587Z,20.70
2022-10-17T10:56:12.922Z,20.90
2022-10-17T10:59:05.108Z,21.00
2022-10-17T11:02:08.536Z,20.90
2022-10-17T11:05:28.887Z,20.90
2022-10-17T11:08:25.274Z,21.00
2022-10-17T11:11:18.115Z,21.00
2022-10-17T11:14:32.465Z,21.00
2022-10-17T11:17:17.424Z,21.00
2022-10-17T11:20:23.001Z,21.10
2022-10-17T11:22:57.761Z,21.10
2022-10-17T11:25:36.169Z,21.20
2022-10-17T11:28:12.387Z,21.30
2022-10-17T11:31:04.527Z,21.40
2022-10-17T11:34:00.090Z,21.50
2022-10-17T11:36:35.208Z,21.60
2022-10-17T11:39:08.906Z,21.60
2022-10-17T11:41:46.484Z,21.50
2022-10-17T11:44:30.222Z,21.50
2022-10-17T11:47:39.839Z,21.50
2022-10-17T11:53:23.042Z,21.90
2022-10-17T11:55:52.851Z,21.90
2022-10-17T11:58:49.870Z,22.10
2022-10-17T12:01:30.280Z,22.10
2022-10-17T12:04:31.878Z,22.10
2022-10-17T12:07:32.814Z,22.10
2022-10-17T12:10:16.903Z,22.20
2022-10-17T12:12:43.923Z,22.20
2022-10-17T12:15:13.496Z,22.20
2022-10-17T12:17:44.999Z,22.30
2022-10-17T12:22:54.413Z,22.30
2022-10-17T12:25:30.681Z,22.40
2022-10-17T12:28:13.127Z,22.40
2022-10-17T12:31:02.736Z,22.50
2022-10-17T12:33:50.279Z,22.60
2022-10-17T12:36:23.126Z,22.50
2022-10-17T12:39:15.165Z,22.60
2022-10-17T12:41:42.510Z,22.70
2022-10-17T12:44:15.391Z,22.90
2022-10-17T12:47:08.522Z,23.00
2022-10-17T12:49:54.409Z,23.20
2022-10-17T12:52:32.520Z,23.50
2022-10-17T12:55:12.638Z,23.50
2022-10-17T12:58:15.679Z,23.40
2022-10-17T13:01:23.941Z,23.40
2022-10-17T13:03:48.255Z,23.50
2022-10-17T13:06:24.367Z,23.70
2022-10-17T13:09:04.051Z,24.60
2022-10-17T13:14:03.963Z,27.70
2022-10-17T13:16:51.391Z,29.20
2022-10-17T13:19:23.565Z,30.60
2022-10-17T13:22:06.492Z,30.90
2022-10-17T13:24:37.613Z,30.40
2022-10-17T13:27:21.352Z,29.90
2022-10-17T13:29:48.204Z,29.80
2022-10-17T13:32:15.132Z,29.80
2022-10-17T13:34:42.313Z,30.30
2022-10-17T13:37:15.100Z,30.80
2022-10-17T13:39:55.174Z,30.90
2022-10-17T13:42:30.682Z,30.00
2022-10-17T13:44:59.177Z,29.90
2022-10-17T13:47:30.033Z,29.80
2022-10-17T13:49:59.223Z,29.00
2022-10-17T13:52:30.075Z,27.90
2022-10-17T13:55:12.514Z,26.60
2022-10-17T13:57:41.230Z,26.10
2022-10-17T14:00:19.706Z,25.80
2022-10-17T14:02:46.839Z,25.70
2022-10-17T14:05:19.317Z,25.50
2022-10-17T14:08:16.870Z,25.80
2022-10-17T14:13:24.986Z,26.40
2022-10-17T14:15:55.113Z,26.10
2022-10-17T14:18:31.988Z,25.30
2022-10-17T14:23:50.884Z,24.60
2022-10-17T14:26:21.873Z,24.30
2022-10-17T14:29:22.331Z,24.80
2022-10-17T14:31:50.656Z,25.50
2022-10-17T14:34:24.934Z,27.50
2022-10-17T14:36:53.264Z,29.00
2022-10-17T14:39:25.455Z,29.80
2022-10-17T14:41:53.191Z,30.30
2022-10-17T14:44:33.194Z,30.60
2022-10-17T14:47:30.910Z,30.70
2022-10-17T14:50:07.744Z,30.20
2022-10-17T14:52:35.646Z,29.50
2022-10-17T14:55:26.961Z,29.40
2022-10-17T14:57:53.727Z,29.20
2022-10-17T15:00:22.432Z,29.10
2022-10-17T15:02:52.553Z,29.50
2022-10-17T15:05:20.428Z,29.60
2022-10-17T15:07:47.246Z,29.20
2022-10-17T15:10:36.074Z,29.20
2022-10-17T15:13:26.620Z,28.50
2022-10-17T15:15:52.509Z,28.00
2022-10-17T15:18:19.784Z,27.20
2022-10-17T15:20:46.819Z,26.90
2022-10-17T15:23:13.690Z,27.00
2022-10-17T15:25:43.763Z,27.00
2022-10-17T15:28:13.451Z,27.10
2022-10-17T15:30:40.310Z,26.60
2022-10-17T15:35:34.394Z,26.10
2022-10-17T15:38:01.233Z,26.10
2022-10-17T15:40:29.917Z,26.00
2022-10-17T15:42:57.065Z,25.80
2022-10-17T15:45:24.484Z,25.40
2022-10-17T15:48:01.740Z,24.80
2022-10-17T15:50:30.568Z,24.10
2022-10-17T15:52:57.420Z,23.60
2022-10-17T15:55:24.436Z,23.00
2022-10-17T15:57:51.416Z,22.50
2022-10-17T16:00:23.731Z,22.20
2022-10-17T16:02:51.190Z,22.00
2022-10-17T16:05:29.308Z,21.60
2022-10-17T16:07:57.500Z,21.40
2022-10-17T16:10:28.136Z,21.30
2022-10-17T16:12:57.714Z,21.20
2022-10-17T16:15:27.921Z,21.10
2022-10-17T16:18:00.446Z,21.10
2022-10-17T16:20:29.722Z,20.90
2022-10-17T16:22:59.881Z,20.80
2022-10-17T16:25:29.128Z,20.70
2022-10-17T16:27:59.597Z,20.50
2022-10-17T16:30:28.939Z,20.50
2022-10-17T16:32:56.896Z,20.40
2022-10-17T16:35:31.908Z,20.40
2022-10-17T16:38:01.882Z,20.30
2022-10-17T16:40:28.783Z,20.20
2022-10-17T16:42:55.534Z,20.10
2022-10-17T16:45:23.268Z,20.10
2022-10-17T16:47:50.689Z,19.90
2022-10-17T16:50:18.728Z,19.80
2022-10-17T16:52:45.539Z,19.80
2022-10-17T16:55:12.456Z,19.70
2022-10-17T16:57:39.994Z,19.60
2022-10-17T17:00:08.020Z,19.50
2022-10-17T17:02:35.057Z,19.40
2022-10-17T17:05:02.043Z,19.40
2022-10-17T17:07:29.852Z,19.30
2022-10-17T17:09:57.007Z,19.20
2022-10-17T17:12:24.508Z,19.20
2022-10-17T17:14:51.548Z,19.10
2022-10-17T17:17:30.335Z,19.00
2022-10-17T17:20:06.752Z,18.90
2022-10-17T17:22:34.251Z,18.70
2022-10-17T17:25:00.998Z,18.60
2022-10-17T17:27:29.099Z,18.60
2022-10-17T17:29:58.870Z,18.50
2022-10-17T17:32:25.654Z,18.40
2022-10-17T17:34:52.531Z,18.30
2022-10-17T17:37:19.313Z,18.20
2022-10-17T17:39:46.073Z,18.20
2022-10-17T17:42:13.447Z,18.20
2022-10-17T17:44:40.384Z,18.20
2022-10-17T17:47:07.245Z,18.20
2022-10-17T17:49:34.184Z,18.20
2022-10-17T17:54:35.043Z,18.20
2022-10-17T17:57:02.877Z,18.20
2022-10-17T17:59:30.636Z,18.10
2022-10-17T18:01:57.698Z,18.00
2022-10-17T18:04:24.511Z,18.00
2022-10-17T18:06:51.254Z,17.90
2022-10-17T18:09:18.036Z,17.90
2022-10-17T18:11:44.932Z,17.80
2022-10-17T18:14:13.760Z,17.60
2022-10-17T18:16:41.050Z,17.50
2022-10-17T18:19:11.064Z,17.40
2022-10-17T18:21:37.872Z,17.30
2022-10-17T18:24:05.849Z,17.30
2022-10-17T18:26:33.166Z,17.30
2022-10-17T18:28:59.944Z,17.30
2022-10-17T18:31:35.324Z,17.20
2022-10-17T18:34:03.594Z,17.30
2022-10-17T18:36:32.151Z,17.40
2022-10-17T18:39:00.907Z,17.40
2022-10-17T18:41:28.645Z,17.30
2022-10-17T18:43:56.972Z,17.30
2022-10-17T18:46:28.998Z,17.40
2022-10-17T18:48:56.629Z,17.30
2022-10-17T18:51:25.480Z,17.30
2022-10-17T18:53:56.505Z,17.20
2022-10-17T18:56:24.602Z,17.20
2022-10-17T18:58:51.890Z,17.20
2022-10-17T19:01:23.140Z,17.20
2022-10-17T19:03:53.072Z,17.10
2022-10-17T19:06:24.032Z,17.00
2022-10-17T19:08:50.939Z,17.10
2022-10-17T19:11:24.669Z,17.10
2022-10-17T19:13:52.416Z,17.10
2022-10-17T19:16:21.786Z,17.10
2022-10-17T19:18:54.238Z,17.00
2022-10-17T19:21:22.039Z,17.00
2022-10-17T19:24:02.101Z,16.90
2022-10-17T19:26:32.566Z,16.90
2022-10-17T19:29:00.469Z,16.80
2022-10-17T19:31:31.508Z,16.70
2022-10-17T19:33:58.760Z,16.60
2022-10-17T19:36:32.437Z,16.70
2022-10-17T19:39:12.475Z,16.60
2022-10-17T19:41:46.745Z,16.50
2022-10-17T19:44:14.737Z,16.40
2022-10-17T19:46:44.385Z,16.40
2022-10-17T19:49:12.262Z,16.40
2022-10-17T19:51:41.171Z,16.40
2022-10-17T19:54:08.326Z,16.30
2022-10-17T19:56:39.336Z,16.20
2022-10-17T19:59:07.597Z,16.20
2022-10-17T20:01:38.960Z,16.30
2022-10-17T20:04:08.505Z,16.30
2022-10-17T20:06:35.640Z,16.30
2022-10-17T20:09:04.320Z,16.20
2022-10-17T20:11:31.836Z,16.20
2022-10-17T20:14:00.860Z,16.20
2022-10-17T20:16:34.719Z,16.10
2022-10-17T20:19:09.331Z,16.10
2022-10-17T20:21:39.351Z,16.10
2022-10-17T20:24:10.811Z,16.10
2022-10-17T20:26:39.355Z,16.10
2022-10-17T20:29:12.525Z,16.00
2022-10-17T20:31:41.417Z,16.00
2022-10-17T20:34:12.695Z,16.00
2022-10-17T20:36:39.953Z,15.90
2022-10-17T20:39:07.641Z,15.90
2022-10-17T20:41:35.038Z,15.80
2022-10-17T20:44:02.041Z,15.80
2022-10-17T20:46:36.803Z,15.80
2022-10-17T20:49:07.073Z,15.80
2022-10-17T20:51:34.785Z,15.80
2022-10-17T20:54:02.766Z,15.90
2022-10-17T20:56:32.492Z,15.80
2022-10-17T20:59:06.242Z,15.80
2022-10-17T21:01:35.446Z,15.80
2022-10-17T21:04:27.122Z,15.80
2022-10-17T21:06:52.027Z,15.80
2022-10-17T21:09:19.412Z,15.70
2022-10-17T21:11:46.618Z,15.70
2022-10-17T21:14:16.621Z,15.70
2022-10-17T21:16:43.784Z,15.70
2022-10-17T21:19:11.915Z,15.70
2022-10-17T21:21:42.952Z,15.70
2022-10-17T21:24:14.226Z,15.80
2022-10-17T21:26:43.262Z,15.80
2022-10-17T21:29:14.483Z,15.80
2022-10-17T21:31:43.953Z,15.80
2022-10-17T21:34:24.504Z,15.90
2022-10-17T21:36:52.049Z,15.90
2022-10-17T21:39:19.172Z,16.00
2022-10-17T21:41:50.456Z,16.10
2022-10-17T21:44:21.705Z,16.20
2022-10-17T21:46:49.352Z,16.30
2022-10-17T21:49:19.436Z,16.30
2022-10-17T21:51:47.761Z,16.30
2022-10-17T21:54:15.984Z,16.40
2022-10-17T21:56:43.758Z,16.40
2022-10-17T21:59:11.258Z,16.30
2022-10-17T22:01:42.832Z,16.40
2022-10-17T22:04:18.097Z,16.30
2022-10-17T22:06:47.457Z,16.30
2022-10-17T22:09:22.184Z,16.30
2022-10-17T22:11:52.986Z,16.30
2022-10-17T22:14:22.664Z,16.20
2022-10-17T22:16:50.254Z,16.20
2022-10-17T22:19:21.535Z,16.30
2022-10-17T22:21:49.152Z,16.30
2022-10-17T22:24:18.216Z,16.40
2022-10-17T22:26:45.714Z,16.40
2022-10-17T22:29:13.330Z,16.40
2022-10-17T22:31:40.313Z,16.50
2022-10-17T22:34:08.377Z,16.50
2022-10-17T22:36:35.934Z,16.50
2022-10-17T22:39:04.026Z,16.50
2022-10-17T22:41:31.458Z,16.50
2022-10-17T22:43:58.480Z,16.50
2022-10-17T22:46:25.731Z,16.50
2022-10-17T22:48:52.544Z,16.50
2022-10-17T22:51:19.461Z,16.50
2022-10-17T22:53:46.414Z,16.50
2022-10-17T22:56:17.471Z,16.50
2022-10-17T22:58:44.944Z,16.50
2022-10-17T23:01:19.666Z,16.40
2022-10-17T23:03:47.053Z,16.40
2022-10-17T23:06:14.792Z,16.30
2022-10-17T23:08:42.392Z,16.30
2022-10-17T23:11:09.946Z,16.20
2022-10-17T23:13:37.334Z,16.20
2022-10-17T23:16:04.757Z,16.20
2022-10-17T23:21:03.427Z,16.30
2022-10-17T23:23:30.191Z,16.40
2022-10-17T23:26:11.864Z,16.40
2022-10-17T23:28:39.484Z,16.40
2022-10-17T23:31:19.633Z,16.50
2022-10-17T23:33:49.123Z,16.40
2022-10-17T23:36:19.424Z,16.50
2022-10-17T23:38:47.479Z,16.40
2022-10-17T23:41:15.423Z,16.40
2022-10-17T23:43:43.452Z,16.50
2022-10-17T23:46:10.864Z,16.50
2022-10-17T23:48:38.696Z,16.50
2022-10-17T23:51:07.349Z,16.40
2022-10-17T23:53:35.142Z,16.30
2022-10-17T23:56:02.106Z,16.20
2022-10-17T23:58:28.939Z,16.20
